TimeMDT,TemperatureF,Dew PointF,Humidity,Sea Level PressureIn,VisibilityMPH,Wind Direction,Wind SpeedMPH,Gust SpeedMPH,PrecipitationIn,Events,Conditions,WindDirDegrees,DateUTC
12:58 AM,53.4,35.8,51,30.04,10.0,WNW,19.6,-,N/A,,Clear,300,2013-05-19 06:58:00
1:58 AM,51.4,37.2,58,30.06,10.0,WNW,18.4,-,N/A,,Clear,300,2013-05-19 07:58:00
2:58 AM,50.4,37.2,61,30.06,10.0,WNW,19.6,-,N/A,,Clear,300,2013-05-19 08:58:00
3:58 AM,49.1,37.4,64,30.06,10.0,NW,18.4,-,N/A,,Scattered Clouds,310,2013-05-19 09:58:00
4:58 AM,48.0,36.9,65,30.08,10.0,WNW,19.6,-,N/A,,Partly Cloudy,300,2013-05-19 10:58:00
5:58 AM,47.7,36.5,65,30.09,10.0,WNW,18.4,26.5,N/A,,Partly Cloudy,300,2013-05-19 11:58:00
6:58 AM,48.4,35.6,61,30.11,10.0,NW,21.9,-,N/A,,Overcast,310,2013-05-19 12:58:00
7:58 AM,49.6,35.4,58,30.12,10.0,NW,25.3,35.7,N/A,,Clear,310,2013-05-19 13:58:00
8:58 AM,54.0,36.1,51,30.13,10.0,NW,28.8,34.5,N/A,,Clear,310,2013-05-19 14:58:00
9:58 AM,56.7,36.3,47,30.14,10.0,WNW,28.8,36.8,N/A,,Clear,300,2013-05-19 15:58:00
10:58 AM,59.4,35.4,41,30.13,10.0,NW,28.8,38.0,N/A,,Partly Cloudy,310,2013-05-19 16:58:00
11:58 AM,62.6,35.1,36,30.12,10.0,NW,28.8,32.2,N/A,,Clear,320,2013-05-19 17:58:00
12:58 PM,64.0,34.0,33,30.11,10.0,NW,27.6,35.7,N/A,,Clear,310,2013-05-19 18:58:00
1:58 PM,66.0,32.4,29,30.09,10.0,WNW,23.0,33.4,N/A,,Clear,300,2013-05-19 19:58:00
2:58 PM,67.3,31.8,27,30.09,10.0,WNW,26.5,34.5,N/A,,Partly Cloudy,300,2013-05-19 20:58:00
3:18 PM,66.2,32.0,28,30.11,10.0,NW,28.8,32.2,N/A,,Mostly Cloudy,310,2013-05-19 21:18:00
3:43 PM,66.2,32.0,28,30.11,10.0,WNW,24.2,34.5,N/A,,Scattered Clouds,290,2013-05-19 21:43:00
3:58 PM,67.6,32.2,27,30.09,10.0,WNW,24.2,35.7,N/A,,Partly Cloudy,300,2013-05-19 21:58:00
4:58 PM,67.5,32.0,27,30.08,10.0,NW,24.2,-,N/A,,Scattered Clouds,310,2013-05-19 22:58:00
5:58 PM,68.0,32.4,27,30.06,10.0,NW,25.3,35.7,N/A,,Partly Cloudy,310,2013-05-19 23:58:00
6:58 PM,66.7,32.4,28,30.07,10.0,NW,29.9,32.2,N/A,,Clear,310,2013-05-20 00:58:00
7:58 PM,64.8,32.2,30,30.07,10.0,NW,26.5,32.2,N/A,,Clear,310,2013-05-20 01:58:00
8:58 PM,61.9,32.7,34,30.08,10.0,NW,24.2,32.2,N/A,,Clear,310,2013-05-20 02:58:00
9:58 PM,58.6,33.6,39,30.09,10.0,WNW,20.7,-,N/A,,Clear,300,2013-05-20 03:58:00
10:58 PM,56.3,34.2,43,30.11,10.0,WNW,19.6,-,N/A,,Clear,300,2013-05-20 04:58:00
11:58 PM,53.4,34.3,48,30.11,10.0,WNW,20.7,-,N/A,,Clear,300,2013-05-20 05:58:00